createdAt,value
2018-09-15T00:02:23.240Z,100372.00
2018-09-15T00:04:52.279Z,100367.00
2018-09-15T00:07:21.364Z,100370.00
2018-09-15T00:09:50.439Z,100373.00
2018-09-15T00:12:19.587Z,100363.00
2018-09-15T00:14:48.743Z,100365.00
2018-09-15T00:17:18.017Z,100364.00
2018-09-15T00:19:47.279Z,100369.00
2018-09-15T00:22:16.417Z,100364.00
2018-09-15T00:24:45.514Z,100366.00
2018-09-15T00:27:14.686Z,100380.00
2018-09-15T00:29:43.772Z,100383.00
2018-09-15T00:32:12.897Z,100380.00
2018-09-15T00:34:41.974Z,100383.00
2018-09-15T00:37:11.046Z,100389.00
2018-09-15T00:39:40.199Z,100400.00
2018-09-15T00:42:09.384Z,100402.00
2018-09-15T00:44:38.489Z,100404.00
2018-09-15T00:47:08.167Z,100402.00
2018-09-15T00:49:37.253Z,100403.00
2018-09-15T00:52:06.316Z,100403.00
2018-09-15T00:54:35.394Z,100406.00
2018-09-15T00:57:04.678Z,100405.00
2018-09-15T00:59:33.970Z,100405.00
2018-09-15T01:02:03.033Z,100396.00
2018-09-15T01:04:32.176Z,100397.00
2018-09-15T01:07:01.313Z,100395.00
2018-09-15T01:09:30.488Z,100402.00
2018-09-15T01:11:59.665Z,100404.00
2018-09-15T01:14:28.732Z,100404.00
2018-09-15T01:16:58.177Z,100400.00
2018-09-15T01:19:27.234Z,100402.00
2018-09-15T01:21:56.311Z,100399.00
2018-09-15T01:24:25.412Z,100397.00
2018-09-15T01:26:54.546Z,100401.00
2018-09-15T01:29:23.688Z,100396.00
2018-09-15T01:31:52.901Z,100399.00
2018-09-15T01:34:22.280Z,100404.00
2018-09-15T01:36:51.518Z,100407.00
2018-09-15T01:39:21.837Z,100399.00
2018-09-15T01:41:52.410Z,100399.00
2018-09-15T01:44:22.082Z,100402.00
2018-09-15T01:46:51.281Z,100402.00
2018-09-15T01:49:20.469Z,100393.00
2018-09-15T01:51:49.976Z,100395.00
2018-09-15T01:54:19.131Z,100397.00
2018-09-15T01:56:49.016Z,100390.00
2018-09-15T01:59:18.404Z,100387.00
2018-09-15T02:01:47.524Z,100383.00
2018-09-15T02:04:18.220Z,100385.00
2018-09-15T02:06:47.640Z,100386.00
2018-09-15T02:09:20.126Z,100387.00
2018-09-15T02:11:49.637Z,100384.00
2018-09-15T02:14:22.449Z,100385.00
2018-09-15T02:16:54.409Z,100386.00
2018-09-15T02:19:23.816Z,100389.00
2018-09-15T02:21:53.157Z,100385.00
2018-09-15T02:24:22.541Z,100384.00
2018-09-15T02:26:51.844Z,100387.00
2018-09-15T02:29:21.544Z,100388.00
2018-09-15T02:31:51.664Z,100388.00
2018-09-15T02:34:22.621Z,100389.00
2018-09-15T02:36:52.088Z,100400.00
2018-09-15T02:39:21.738Z,100399.00
2018-09-15T02:41:51.758Z,100403.00
2018-09-15T02:44:22.554Z,100401.00
2018-09-15T02:46:51.690Z,100398.00
2018-09-15T02:49:21.401Z,100399.00
2018-09-15T02:51:51.638Z,100399.00
2018-09-15T02:54:21.037Z,100397.00
2018-09-15T02:56:50.738Z,100395.00
2018-09-15T02:59:21.774Z,100396.00
2018-09-15T03:01:50.977Z,100398.00
2018-09-15T03:04:20.873Z,100390.00
2018-09-15T03:06:50.843Z,100393.00
2018-09-15T03:09:21.606Z,100391.00
2018-09-15T03:11:50.749Z,100390.00
2018-09-15T03:14:21.133Z,100392.00
2018-09-15T03:16:51.048Z,100401.00
2018-09-15T03:19:20.287Z,100396.00
2018-09-15T03:21:49.999Z,100401.00
2018-09-15T03:24:19.265Z,100410.00
2018-09-15T03:26:48.345Z,100411.00
2018-09-15T03:29:17.542Z,100414.00
2018-09-15T03:31:48.369Z,100413.00
2018-09-15T03:34:17.536Z,100412.00
2018-09-15T03:36:46.748Z,100412.00
2018-09-15T03:39:16.045Z,100412.00
2018-09-15T03:41:45.605Z,100408.00
2018-09-15T03:44:15.051Z,100411.00
2018-09-15T03:46:45.157Z,100411.00
2018-09-15T03:49:15.097Z,100410.00
2018-09-15T03:51:44.855Z,100412.00
2018-09-15T03:54:18.150Z,100412.00
2018-09-15T03:56:47.268Z,100410.00
2018-09-15T03:59:17.262Z,100413.00
2018-09-15T04:01:47.175Z,100417.00
2018-09-15T04:04:18.117Z,100425.00
2018-09-15T04:06:48.315Z,100430.00
2018-09-15T04:09:18.868Z,100430.00
2018-09-15T04:11:51.067Z,100435.00
2018-09-15T04:14:22.071Z,100440.00
2018-09-15T04:17:02.056Z,100442.00
2018-09-15T04:19:35.073Z,100440.00
2018-09-15T04:22:13.932Z,100434.00
2018-09-15T04:24:46.696Z,100437.00
2018-09-15T04:27:16.164Z,100434.00
2018-09-15T04:29:46.218Z,100442.00
2018-09-15T04:32:18.878Z,100440.00
2018-09-15T04:34:49.201Z,100446.00
2018-09-15T04:37:20.707Z,100445.00
2018-09-15T04:39:53.369Z,100453.00
2018-09-15T04:42:25.282Z,100446.00
2018-09-15T04:44:57.937Z,100450.00
2018-09-15T04:47:28.556Z,100446.00
2018-09-15T04:50:00.724Z,100444.00
2018-09-15T04:52:31.408Z,100445.00
2018-09-15T04:55:01.693Z,100445.00
2018-09-15T04:57:32.016Z,100448.00
2018-09-15T05:00:03.429Z,100448.00
2018-09-15T05:02:36.359Z,100452.00
2018-09-15T05:05:09.253Z,100453.00
2018-09-15T05:07:40.799Z,100457.00
2018-09-15T05:10:15.293Z,100460.00
2018-09-15T05:12:47.490Z,100461.00
2018-09-15T05:15:18.415Z,100456.00
2018-09-15T05:17:48.821Z,100459.00
2018-09-15T05:20:29.012Z,100456.00
2018-09-15T05:23:00.957Z,100455.00
2018-09-15T05:25:33.879Z,100452.00
2018-09-15T05:28:05.504Z,100461.00
2018-09-15T05:30:38.484Z,100464.00
2018-09-15T05:33:14.537Z,100468.00
2018-09-15T05:35:45.198Z,100465.00
2018-09-15T05:38:15.226Z,100477.00
2018-09-15T05:40:46.093Z,100477.00
2018-09-15T05:43:19.139Z,100491.00
2018-09-15T05:45:49.629Z,100490.00
2018-09-15T05:48:21.199Z,100489.00
2018-09-15T05:50:51.146Z,100492.00
2018-09-15T05:53:21.000Z,100492.00
2018-09-15T05:55:50.972Z,100499.00
2018-09-15T05:58:20.666Z,100497.00
2018-09-15T06:00:51.517Z,100498.00
2018-09-15T06:07:12.311Z,100491.00
2018-09-15T06:09:41.592Z,100494.00
2018-09-15T06:12:11.569Z,100502.00
2018-09-15T06:14:41.639Z,100502.00
2018-09-15T06:17:10.927Z,100503.00
2018-09-15T06:19:40.093Z,100511.00
2018-09-15T06:22:09.388Z,100504.00
2018-09-15T06:24:38.488Z,100502.00
2018-09-15T06:27:07.818Z,100500.00
2018-09-15T06:29:37.272Z,100508.00
2018-09-15T06:32:06.752Z,100504.00
2018-09-15T06:34:35.937Z,100506.00
2018-09-15T06:37:05.369Z,100514.00
2018-09-15T06:39:34.588Z,100517.00
2018-09-15T06:42:03.846Z,100516.00
2018-09-15T06:44:33.019Z,100519.00
2018-09-15T06:47:02.200Z,100526.00
2018-09-15T06:49:31.369Z,100519.00
2018-09-15T06:52:00.677Z,100524.00
2018-09-15T06:54:29.952Z,100533.00
2018-09-15T06:56:59.216Z,100526.00
2018-09-15T06:59:28.463Z,100525.00
2018-09-15T07:01:57.880Z,100531.00
2018-09-15T07:04:27.291Z,100534.00
2018-09-15T07:06:56.495Z,100526.00
2018-09-15T07:09:25.616Z,100543.00
2018-09-15T07:11:55.080Z,100552.00
2018-09-15T07:14:24.357Z,100544.00
2018-09-15T07:16:53.738Z,100561.00
2018-09-15T07:19:23.039Z,100560.00
2018-09-15T07:21:52.505Z,100564.00
2018-09-15T07:24:21.806Z,100572.00
2018-09-15T07:26:50.959Z,100575.00
2018-09-15T07:29:20.178Z,100575.00
2018-09-15T07:31:49.933Z,100580.00
2018-09-15T07:34:19.346Z,100584.00
2018-09-15T07:36:48.771Z,100577.00
2018-09-15T07:39:18.259Z,100574.00
2018-09-15T07:41:47.539Z,100585.00
2018-09-15T07:44:16.875Z,100585.00
2018-09-15T07:46:46.229Z,100586.00
2018-09-15T07:49:15.782Z,100582.00
2018-09-15T07:51:45.055Z,100585.00
2018-09-15T07:54:14.348Z,100590.00
2018-09-15T07:56:43.644Z,100588.00
2018-09-15T07:59:13.154Z,100591.00
2018-09-15T08:01:42.604Z,100591.00
2018-09-15T08:04:12.350Z,100584.00
2018-09-15T08:06:41.892Z,100585.00
2018-09-15T08:09:11.511Z,100589.00
2018-09-15T08:11:41.029Z,100586.00
2018-09-15T08:14:10.322Z,100591.00
2018-09-15T08:16:40.112Z,100591.00
2018-09-15T08:19:09.430Z,100591.00
2018-09-15T08:21:38.707Z,100593.00
2018-09-15T08:24:07.913Z,100593.00
2018-09-15T08:26:37.279Z,100594.00
2018-09-15T08:29:06.562Z,100598.00
2018-09-15T08:31:35.917Z,100594.00
2018-09-15T08:34:05.145Z,100596.00
2018-09-15T08:36:34.415Z,100606.00
2018-09-15T08:39:04.008Z,100604.00
2018-09-15T08:41:33.142Z,100607.00
2018-09-15T08:44:02.276Z,100611.00
2018-09-15T08:46:31.521Z,100617.00
2018-09-15T08:49:00.885Z,100620.00
2018-09-15T08:51:30.174Z,100627.00
2018-09-15T08:53:59.301Z,100622.00
2018-09-15T08:56:28.480Z,100624.00
2018-09-15T08:58:58.101Z,100630.00
2018-09-15T09:01:27.368Z,100630.00
2018-09-15T09:03:57.740Z,100633.00
2018-09-15T09:06:27.271Z,100632.00
2018-09-15T09:08:56.403Z,100627.00
2018-09-15T09:11:25.865Z,100635.00
2018-09-15T09:13:55.044Z,100633.00
2018-09-15T09:16:24.251Z,100633.00
2018-09-15T09:18:53.634Z,100633.00
2018-09-15T09:21:22.850Z,100640.00
2018-09-15T09:23:52.032Z,100637.00
2018-09-15T09:26:21.336Z,100629.00
2018-09-15T09:28:50.369Z,100633.00
2018-09-15T09:31:19.622Z,100629.00
2018-09-15T09:33:48.870Z,100637.00
2018-09-15T09:36:18.260Z,100628.00
2018-09-15T09:38:47.634Z,100639.00
2018-09-15T09:41:16.844Z,100654.00
2018-09-15T09:43:46.690Z,100646.00
2018-09-15T09:46:15.965Z,100652.00
2018-09-15T09:48:45.938Z,100652.00
2018-09-15T09:51:17.044Z,100655.00
2018-09-15T09:53:46.392Z,100653.00
2018-09-15T09:56:17.193Z,100662.00
2018-09-15T09:58:47.391Z,100661.00
2018-09-15T10:01:22.173Z,100663.00
2018-09-15T10:03:51.466Z,100658.00
2018-09-15T10:06:20.705Z,100659.00
2018-09-15T10:08:49.935Z,100659.00
2018-09-15T10:11:20.034Z,100656.00
2018-09-15T10:13:49.330Z,100655.00
2018-09-15T10:16:18.666Z,100655.00
2018-09-15T10:18:48.379Z,100643.00
2018-09-15T10:21:17.751Z,100658.00
2018-09-15T10:23:47.160Z,100655.00
2018-09-15T10:26:16.432Z,100652.00
2018-09-15T10:28:45.882Z,100656.00
2018-09-15T10:31:15.201Z,100647.00
2018-09-15T10:33:44.840Z,100652.00
2018-09-15T10:36:14.211Z,100636.00
2018-09-15T10:38:43.623Z,100632.00
2018-09-15T10:41:13.187Z,100636.00
2018-09-15T10:43:42.554Z,100640.00
2018-09-15T10:46:12.183Z,100644.00
2018-09-15T10:48:41.682Z,100644.00
2018-09-15T10:51:12.513Z,100648.00
2018-09-15T10:53:41.980Z,100647.00
2018-09-15T10:56:11.518Z,100644.00
2018-09-15T10:58:41.153Z,100643.00
2018-09-15T11:01:10.312Z,100648.00
2018-09-15T11:03:39.476Z,100646.00
2018-09-15T11:06:08.887Z,100648.00
2018-09-15T11:08:38.145Z,100649.00
2018-09-15T11:11:07.567Z,100645.00
2018-09-15T11:13:36.739Z,100642.00
2018-09-15T11:16:06.027Z,100637.00
2018-09-15T11:18:35.278Z,100641.00
2018-09-15T11:21:04.397Z,100639.00
2018-09-15T11:23:33.757Z,100629.00
2018-09-15T11:26:03.100Z,100633.00
2018-09-15T11:28:32.359Z,100631.00
2018-09-15T11:31:01.496Z,100632.00
2018-09-15T11:33:30.616Z,100626.00
2018-09-15T11:35:59.740Z,100629.00
2018-09-15T11:38:28.869Z,100634.00
2018-09-15T11:40:59.209Z,100630.00
2018-09-15T11:43:29.223Z,100637.00
2018-09-15T11:45:58.514Z,100637.00
2018-09-15T11:48:28.040Z,100634.00
2018-09-15T11:50:57.220Z,100631.00
2018-09-15T11:53:26.823Z,100626.00
2018-09-15T11:55:56.254Z,100626.00
2018-09-15T11:58:25.412Z,100618.00
2018-09-15T12:00:58.018Z,100624.00
2018-09-15T12:03:27.214Z,100626.00
2018-09-15T12:05:56.320Z,100627.00
2018-09-15T12:08:25.458Z,100627.00
2018-09-15T12:10:54.551Z,100632.00
2018-09-15T12:13:23.785Z,100634.00
2018-09-15T12:15:52.979Z,100623.00
2018-09-15T12:18:22.104Z,100626.00
2018-09-15T12:20:51.619Z,100623.00
2018-09-15T12:23:20.766Z,100622.00
2018-09-15T12:25:50.072Z,100627.00
2018-09-15T12:28:19.277Z,100624.00
2018-09-15T12:30:48.401Z,100622.00
2018-09-15T12:33:17.555Z,100622.00
2018-09-15T12:35:46.936Z,100619.00
2018-09-15T12:38:16.197Z,100624.00
2018-09-15T12:40:45.765Z,100629.00
2018-09-15T12:43:15.014Z,100627.00
2018-09-15T12:45:44.496Z,100634.00
2018-09-15T12:48:13.805Z,100639.00
2018-09-15T12:50:43.783Z,100636.00
2018-09-15T12:53:13.508Z,100637.00
2018-09-15T12:55:43.985Z,100641.00
2018-09-15T12:58:16.500Z,100638.00
2018-09-15T13:00:47.710Z,100630.00
2018-09-15T13:03:17.628Z,100633.00
2018-09-15T13:05:47.238Z,100640.00
2018-09-15T13:08:18.035Z,100631.00
2018-09-15T13:10:48.270Z,100627.00
2018-09-15T13:13:18.077Z,100629.00
2018-09-15T13:15:48.055Z,100631.00
2018-09-15T13:18:17.639Z,100626.00
2018-09-15T13:20:48.400Z,100622.00
2018-09-15T13:23:19.274Z,100616.00
2018-09-15T13:25:48.969Z,100606.00
2018-09-15T13:28:18.319Z,100608.00
2018-09-15T13:30:48.115Z,100601.00
2018-09-15T13:33:17.680Z,100604.00
2018-09-15T13:35:47.708Z,100600.00
2018-09-15T13:38:18.447Z,100605.00
2018-09-15T13:40:50.859Z,100612.00
2018-09-15T13:43:21.002Z,100612.00
2018-09-15T13:45:50.483Z,100619.00
2018-09-15T13:48:20.852Z,100628.00
2018-09-15T13:50:50.263Z,100632.00
2018-09-15T13:53:23.216Z,100622.00
2018-09-15T13:55:52.823Z,100618.00
2018-09-15T13:58:22.406Z,100611.00
2018-09-15T14:00:51.522Z,100608.00
2018-09-15T14:03:21.070Z,100614.00
2018-09-15T14:05:50.886Z,100610.00
2018-09-15T14:08:20.307Z,100612.00
2018-09-15T14:10:50.113Z,100614.00
2018-09-15T14:13:21.016Z,100616.00
2018-09-15T14:15:51.033Z,100625.00
2018-09-15T14:18:20.835Z,100629.00
2018-09-15T14:20:52.139Z,100635.00
2018-09-15T14:23:22.145Z,100636.00
2018-09-15T14:25:51.621Z,100638.00
2018-09-15T14:28:21.761Z,100637.00
2018-09-15T14:30:51.413Z,100637.00
2018-09-15T14:33:21.320Z,100632.00
2018-09-15T14:35:50.816Z,100631.00
2018-09-15T14:38:20.001Z,100631.00
2018-09-15T14:40:50.240Z,100631.00
2018-09-15T14:43:20.784Z,100626.00
2018-09-15T14:45:50.345Z,100620.00
2018-09-15T14:48:20.018Z,100622.00
2018-09-15T14:50:49.338Z,100626.00
2018-09-15T14:53:20.273Z,100623.00
2018-09-15T14:55:51.102Z,100624.00
2018-09-15T14:58:21.690Z,100625.00
2018-09-15T15:00:56.429Z,100617.00
2018-09-15T15:03:28.448Z,100620.00
2018-09-15T15:05:57.700Z,100614.00
2018-09-15T15:08:27.065Z,100615.00
2018-09-15T15:10:56.281Z,100623.00
2018-09-15T15:13:27.582Z,100620.00
2018-09-15T15:15:56.858Z,100624.00
2018-09-15T15:18:30.318Z,100622.00
2018-09-15T15:21:00.155Z,100624.00
2018-09-15T15:23:30.969Z,100625.00
2018-09-15T15:26:00.524Z,100618.00
2018-09-15T15:28:29.782Z,100621.00
2018-09-15T15:30:59.621Z,100623.00
2018-09-15T15:33:29.135Z,100617.00
2018-09-15T15:35:59.682Z,100618.00
2018-09-15T15:38:29.754Z,100620.00
2018-09-15T15:40:59.200Z,100615.00
2018-09-15T15:43:28.863Z,100616.00
2018-09-15T15:45:58.133Z,100615.00
2018-09-15T15:48:27.562Z,100619.00
2018-09-15T15:50:57.241Z,100621.00
2018-09-15T15:53:26.733Z,100618.00
2018-09-15T15:55:56.738Z,100616.00
2018-09-15T15:58:28.795Z,100609.00
2018-09-15T16:00:58.403Z,100606.00
2018-09-15T16:03:27.720Z,100607.00
2018-09-15T16:05:57.204Z,100611.00
2018-09-15T16:08:26.442Z,100611.00
2018-09-15T16:10:55.958Z,100612.00
2018-09-15T16:13:25.860Z,100614.00
2018-09-15T16:15:55.175Z,100609.00
2018-09-15T16:18:24.682Z,100610.00
2018-09-15T16:20:54.098Z,100610.00
2018-09-15T16:23:27.700Z,100609.00
2018-09-15T16:25:57.906Z,100609.00
2018-09-15T16:28:27.507Z,100607.00
2018-09-15T16:30:57.148Z,100605.00
2018-09-15T16:33:26.492Z,100605.00
2018-09-15T16:35:56.521Z,100602.00
2018-09-15T16:38:26.060Z,100604.00
2018-09-15T16:40:55.486Z,100604.00
2018-09-15T16:43:25.198Z,100600.00
2018-09-15T16:45:55.168Z,100595.00
2018-09-15T16:48:24.441Z,100594.00
2018-09-15T16:50:54.671Z,100595.00
2018-09-15T16:53:25.283Z,100600.00
2018-09-15T16:55:55.062Z,100603.00
2018-09-15T16:58:24.631Z,100600.00
2018-09-15T17:00:55.609Z,100602.00
2018-09-15T17:03:25.107Z,100600.00
2018-09-15T17:05:54.513Z,100608.00
2018-09-15T17:08:23.920Z,100607.00
2018-09-15T17:10:53.636Z,100605.00
2018-09-15T17:13:24.903Z,100607.00
2018-09-15T17:15:54.384Z,100606.00
2018-09-15T17:18:24.569Z,100603.00
2018-09-15T17:20:54.154Z,100604.00
2018-09-15T17:23:23.533Z,100613.00
2018-09-15T17:25:53.305Z,100611.00
2018-09-15T17:28:24.033Z,100610.00
2018-09-15T17:30:55.356Z,100607.00
2018-09-15T17:33:26.089Z,100606.00
2018-09-15T17:35:56.525Z,100617.00
2018-09-15T17:38:28.945Z,100618.00
2018-09-15T17:40:58.520Z,100622.00
2018-09-15T17:43:28.135Z,100622.00
2018-09-15T17:45:58.288Z,100620.00
2018-09-15T17:48:28.372Z,100625.00
2018-09-15T17:50:58.080Z,100622.00
2018-09-15T17:53:27.688Z,100622.00
2018-09-15T17:55:57.413Z,100626.00
2018-09-15T17:58:27.191Z,100630.00
2018-09-15T18:00:57.205Z,100632.00
2018-09-15T18:03:26.999Z,100636.00
2018-09-15T18:05:57.005Z,100640.00
2018-09-15T18:08:26.295Z,100641.00
2018-09-15T18:10:56.685Z,100640.00
2018-09-15T18:13:27.783Z,100645.00
2018-09-15T18:16:02.036Z,100647.00
2018-09-15T18:18:32.472Z,100646.00
2018-09-15T18:21:02.810Z,100646.00
2018-09-15T18:23:33.571Z,100650.00
2018-09-15T18:26:03.685Z,100653.00
2018-09-15T18:28:35.327Z,100644.00
2018-09-15T18:31:05.628Z,100640.00
2018-09-15T18:33:36.288Z,100647.00
2018-09-15T18:36:06.288Z,100648.00
2018-09-15T18:38:36.911Z,100651.00
2018-09-15T18:41:06.326Z,100656.00
2018-09-15T18:43:36.380Z,100657.00
2018-09-15T18:46:07.325Z,100659.00
2018-09-15T18:48:37.226Z,100663.00
2018-09-15T18:51:08.351Z,100660.00
2018-09-15T18:53:39.955Z,100663.00
2018-09-15T18:56:09.674Z,100660.00
2018-09-15T18:58:41.096Z,100666.00
2018-09-15T19:01:11.241Z,100668.00
2018-09-15T19:03:42.088Z,100679.00
2018-09-15T19:06:14.397Z,100681.00
2018-09-15T19:08:46.098Z,100681.00
2018-09-15T19:11:18.040Z,100680.00
2018-09-15T19:13:48.893Z,100683.00
2018-09-15T19:16:20.081Z,100684.00
2018-09-15T19:18:51.280Z,100683.00
2018-09-15T19:21:21.636Z,100685.00
2018-09-15T19:23:52.506Z,100691.00
2018-09-15T19:26:22.933Z,100694.00
2018-09-15T19:28:52.594Z,100696.00
2018-09-15T19:31:22.198Z,100688.00
2018-09-15T19:33:52.808Z,100688.00
2018-09-15T19:36:25.678Z,100687.00
2018-09-15T19:39:00.173Z,100687.00
2018-09-15T19:41:30.475Z,100688.00
2018-09-15T19:44:00.679Z,100695.00
2018-09-15T19:46:32.264Z,100706.00
2018-09-15T19:49:02.212Z,100701.00
2018-09-15T19:51:31.980Z,100706.00
2018-09-15T19:54:01.827Z,100702.00
2018-09-15T19:56:32.028Z,100704.00
2018-09-15T19:59:02.598Z,100700.00
2018-09-15T20:01:32.134Z,100707.00
2018-09-15T20:04:01.294Z,100708.00
2018-09-15T20:06:30.878Z,100708.00
2018-09-15T20:09:01.355Z,100704.00
2018-09-15T20:11:33.082Z,100708.00
2018-09-15T20:14:02.861Z,100704.00
2018-09-15T20:16:30.761Z,100710.00
2018-09-15T20:18:58.467Z,100713.00
2018-09-15T20:21:26.326Z,100716.00
2018-09-15T20:23:56.195Z,100716.00
2018-09-15T20:26:26.435Z,100713.00
2018-09-15T20:28:56.116Z,100713.00
2018-09-15T20:31:25.844Z,100713.00
2018-09-15T20:33:59.239Z,100711.00
2018-09-15T20:36:28.897Z,100713.00
2018-09-15T20:38:59.119Z,100718.00
2018-09-15T20:41:30.774Z,100708.00
2018-09-15T20:44:01.094Z,100719.00
2018-09-15T20:46:31.816Z,100713.00
2018-09-15T20:49:01.376Z,100710.00
2018-09-15T20:51:31.038Z,100707.00
2018-09-15T20:54:00.480Z,100702.00
2018-09-15T20:56:30.785Z,100709.00
2018-09-15T20:59:00.810Z,100711.00
2018-09-15T21:01:30.203Z,100713.00
2018-09-15T21:04:00.874Z,100714.00
2018-09-15T21:06:30.508Z,100716.00
2018-09-15T21:09:00.518Z,100711.00
2018-09-15T21:11:30.010Z,100711.00
2018-09-15T21:14:00.315Z,100714.00
2018-09-15T21:16:29.632Z,100708.00
2018-09-15T21:18:59.611Z,100714.00
2018-09-15T21:21:29.104Z,100712.00
2018-09-15T21:23:59.910Z,100709.00
2018-09-15T21:26:29.877Z,100708.00
2018-09-15T21:28:59.077Z,100715.00
2018-09-15T21:31:28.754Z,100712.00
2018-09-15T21:33:58.197Z,100713.00
2018-09-15T21:36:27.631Z,100712.00
2018-09-15T21:38:57.887Z,100713.00
2018-09-15T21:41:27.360Z,100711.00
2018-09-15T21:43:57.650Z,100718.00
2018-09-15T21:46:27.082Z,100718.00
2018-09-15T21:48:56.487Z,100715.00
2018-09-15T21:51:26.384Z,100716.00
2018-09-15T21:53:56.066Z,100707.00
2018-09-15T21:56:25.451Z,100706.00
2018-09-15T21:58:55.125Z,100707.00
2018-09-15T22:01:25.460Z,100709.00
2018-09-15T22:04:03.272Z,100706.00
2018-09-15T22:06:32.761Z,100703.00
2018-09-15T22:09:02.027Z,100703.00
2018-09-15T22:11:31.822Z,100708.00
2018-09-15T22:14:01.188Z,100709.00
2018-09-15T22:16:30.589Z,100714.00
2018-09-15T22:18:59.716Z,100715.00
2018-09-15T22:21:29.913Z,100718.00
2018-09-15T22:23:59.647Z,100724.00
2018-09-15T22:26:29.753Z,100721.00
2018-09-15T22:28:59.052Z,100721.00
2018-09-15T22:31:28.612Z,100717.00
2018-09-15T22:34:00.269Z,100717.00
2018-09-15T22:36:31.747Z,100710.00
2018-09-15T22:39:01.770Z,100712.00
2018-09-15T22:41:31.499Z,100712.00
2018-09-15T22:44:02.019Z,100711.00
2018-09-15T22:46:32.398Z,100712.00
2018-09-15T22:49:02.010Z,100714.00
2018-09-15T22:51:31.917Z,100714.00
2018-09-15T22:54:04.547Z,100709.00
2018-09-15T22:56:36.842Z,100708.00
2018-09-15T22:59:06.782Z,100703.00
2018-09-15T23:01:36.189Z,100704.00
2018-09-15T23:04:07.802Z,100695.00
2018-09-15T23:06:37.337Z,100694.00
2018-09-15T23:09:09.492Z,100693.00
2018-09-15T23:11:39.772Z,100692.00
2018-09-15T23:14:10.102Z,100690.00
2018-09-15T23:16:40.757Z,100691.00
2018-09-15T23:19:11.394Z,100692.00
2018-09-15T23:21:40.925Z,100686.00
2018-09-15T23:24:10.300Z,100687.00
2018-09-15T23:26:43.740Z,100685.00
2018-09-15T23:29:15.763Z,100684.00
2018-09-15T23:31:45.237Z,100683.00
2018-09-15T23:34:14.436Z,100676.00
2018-09-15T23:36:44.453Z,100673.00
2018-09-15T23:39:14.271Z,100669.00
2018-09-15T23:41:44.412Z,100668.00
2018-09-15T23:44:13.622Z,100663.00
2018-09-15T23:46:43.196Z,100663.00
2018-09-15T23:49:13.933Z,100667.00
2018-09-15T23:51:44.028Z,100663.00
2018-09-15T23:54:14.296Z,100658.00
2018-09-15T23:56:43.932Z,100666.00
2018-09-15T23:59:14.056Z,100663.00
